createdAt,value
2018-08-10T01:04:57.931Z,66.17
2018-08-10T01:07:26.627Z,66.55
2018-08-10T01:09:55.176Z,66.29
2018-08-10T01:12:23.790Z,65.20
2018-08-10T01:14:52.361Z,64.59
2018-08-10T01:17:21.389Z,63.89
2018-08-10T01:19:49.936Z,64.10
2018-08-10T01:22:18.529Z,63.41
2018-08-10T01:24:47.112Z,62.61
2018-08-10T01:27:20.917Z,62.48
2018-08-10T01:29:49.654Z,62.12
2018-08-10T01:32:18.367Z,61.56
2018-08-10T01:34:46.962Z,63.06
2018-08-10T01:37:15.642Z,62.72
2018-08-10T01:39:44.209Z,62.79
2018-08-10T01:42:12.801Z,63.21
2018-08-10T01:44:41.389Z,63.57
2018-08-10T01:47:10.556Z,62.85
2018-08-10T01:49:39.136Z,62.64
2018-08-10T01:52:07.770Z,62.31
2018-08-10T01:54:36.842Z,62.13
2018-08-10T01:57:05.706Z,62.70
2018-08-10T01:59:34.320Z,63.07
2018-08-10T02:02:02.907Z,63.77
2018-08-10T02:04:31.544Z,64.05
2018-08-10T02:07:02.701Z,64.40
2018-08-10T02:09:31.603Z,64.95
2018-08-10T02:12:00.216Z,64.55
2018-08-10T02:14:29.002Z,64.32
2018-08-10T02:16:57.587Z,64.35
2018-08-10T02:19:26.331Z,63.56
2018-08-10T02:21:55.052Z,63.17
2018-08-10T02:24:23.644Z,62.75
2018-08-10T02:26:52.688Z,62.80
2018-08-10T02:29:21.324Z,62.81
2018-08-10T02:31:49.912Z,62.45
2018-08-10T02:34:18.661Z,61.91
2018-08-10T02:36:47.239Z,61.35
2018-08-10T02:39:15.807Z,62.08
2018-08-10T02:41:44.867Z,61.77
2018-08-10T02:44:13.493Z,61.39
2018-08-10T02:46:42.101Z,61.33
2018-08-10T02:49:10.904Z,60.93
2018-08-10T02:51:39.849Z,61.14
2018-08-10T02:54:08.853Z,61.51
2018-08-10T02:56:37.431Z,61.44
2018-08-10T02:59:06.115Z,62.13
2018-08-10T03:01:34.815Z,61.78
2018-08-10T03:18:15.492Z,61.52
2018-08-10T03:20:44.154Z,61.67
2018-08-10T03:23:13.194Z,61.57
2018-08-10T03:25:41.772Z,61.53
2018-08-10T03:28:10.399Z,61.83
2018-08-10T03:30:39.080Z,61.13
2018-08-10T03:33:07.638Z,61.09
2018-08-10T03:35:36.179Z,62.43
2018-08-10T03:38:04.871Z,61.57
2018-08-10T03:40:33.431Z,61.19
2018-08-10T03:43:02.030Z,62.31
2018-08-10T03:45:30.646Z,61.87
2018-08-10T03:47:59.315Z,62.67
2018-08-10T03:50:27.920Z,62.04
2018-08-10T03:52:56.520Z,62.22
2018-08-10T03:55:25.156Z,62.49
2018-08-10T03:57:53.751Z,61.52
2018-08-10T04:00:22.368Z,61.23
2018-08-10T04:02:51.785Z,61.14
2018-08-10T04:05:20.352Z,61.28
2018-08-10T04:07:51.411Z,60.59
2018-08-10T04:10:20.139Z,60.80
2018-08-10T04:12:48.696Z,60.51
2018-08-10T04:20:24.787Z,61.23
2018-08-10T04:22:53.347Z,62.87
2018-08-10T04:25:21.941Z,62.02
2018-08-10T04:27:50.572Z,62.66
2018-08-10T04:30:19.287Z,62.13
2018-08-10T04:32:47.880Z,62.42
2018-08-10T04:35:16.847Z,63.25
2018-08-10T04:37:45.508Z,63.72
2018-08-10T04:40:14.117Z,63.25
2018-08-10T04:42:42.667Z,64.22
2018-08-10T04:45:11.680Z,63.63
2018-08-10T04:47:44.529Z,64.63
2018-08-10T04:50:13.133Z,64.30
2018-08-10T04:52:41.747Z,64.56
2018-08-10T04:55:10.782Z,64.75
2018-08-10T04:57:39.619Z,64.36
2018-08-10T05:00:11.028Z,64.80
2018-08-10T05:02:39.707Z,63.80
2018-08-10T05:27:54.436Z,60.86
2018-08-10T05:35:39.785Z,60.40
2018-08-10T05:38:09.340Z,59.30
2018-08-10T05:54:06.937Z,59.13
2018-08-10T05:58:02.855Z,60.85
2018-08-10T06:00:50.876Z,59.58
2018-08-10T06:09:44.407Z,59.56
2018-08-10T06:13:53.175Z,60.33
2018-08-10T06:16:42.008Z,60.49
2018-08-10T06:22:02.403Z,60.13
2018-08-10T06:24:31.029Z,60.17
2018-08-10T06:30:01.001Z,59.14
2018-08-10T06:32:40.702Z,58.48
2018-08-10T06:35:09.889Z,58.59
2018-08-10T06:37:38.743Z,58.62
2018-08-10T06:40:07.571Z,57.92
2018-08-10T06:42:36.308Z,58.19
2018-08-10T06:45:05.176Z,57.11
2018-08-10T06:47:33.587Z,57.27
2018-08-10T06:50:02.187Z,57.04
2018-08-10T06:52:30.760Z,56.34
2018-08-10T06:54:59.299Z,56.52
2018-08-10T06:57:27.900Z,56.94
2018-08-10T06:59:56.453Z,56.66
2018-08-10T07:25:20.909Z,56.14
2018-08-10T07:27:49.601Z,56.13
2018-08-10T07:33:39.421Z,56.11
2018-08-10T07:50:41.760Z,53.52
2018-08-10T07:53:10.615Z,52.46
2018-08-10T07:55:39.284Z,52.31
2018-08-10T07:58:07.896Z,52.39
2018-08-10T08:06:08.789Z,50.45
2018-08-10T08:20:25.904Z,49.96
2018-08-10T08:23:04.100Z,50.71
2018-08-10T08:25:32.731Z,51.62
2018-08-10T08:28:01.665Z,50.58
2018-08-10T08:30:30.283Z,50.74
2018-08-10T08:36:10.260Z,50.59
2018-08-10T08:38:52.664Z,50.07
2018-08-10T08:41:21.250Z,50.24
2018-08-10T08:46:05.850Z,49.49
2018-08-10T08:48:35.767Z,51.45
2018-08-10T08:51:07.029Z,51.14
2018-08-10T08:53:35.702Z,50.60
2018-08-10T08:56:09.771Z,51.19
2018-08-10T08:58:38.896Z,50.41
2018-08-10T09:01:08.576Z,50.67
2018-08-10T09:03:48.169Z,51.44
2018-08-10T09:06:16.760Z,50.61
2018-08-10T09:08:57.347Z,50.94
2018-08-10T09:14:49.914Z,51.08
2018-08-10T09:47:43.113Z,54.45
2018-08-10T09:50:48.702Z,54.43
2018-08-10T09:53:17.304Z,55.09
2018-08-10T09:55:45.884Z,55.32
2018-08-10T09:58:20.390Z,55.04
2018-08-10T10:00:54.976Z,55.62
2018-08-10T10:03:25.098Z,55.14
2018-08-10T10:05:55.380Z,55.76
2018-08-10T10:11:14.164Z,55.50
2018-08-10T10:13:43.439Z,54.41
2018-08-10T10:16:11.992Z,53.77
2018-08-10T10:18:40.763Z,51.87
2018-08-10T10:21:09.496Z,50.78
2018-08-10T10:24:08.852Z,49.81
2018-08-10T10:26:37.708Z,50.72
2018-08-10T10:29:06.908Z,49.36
2018-08-10T10:31:35.563Z,48.68
2018-08-10T10:34:04.412Z,48.77
2018-08-10T10:36:33.197Z,47.29
2018-08-10T10:39:02.054Z,48.80
2018-08-10T10:41:30.663Z,48.24
2018-08-10T10:43:59.539Z,48.18
2018-08-10T10:46:28.143Z,47.84
2018-08-10T10:48:56.724Z,48.24
2018-08-10T10:51:25.327Z,47.83
2018-08-10T10:53:53.923Z,46.27
2018-08-10T10:56:37.447Z,47.26
2018-08-10T10:59:06.008Z,46.46
2018-08-10T11:01:34.589Z,47.25
2018-08-10T11:04:03.248Z,46.94
2018-08-10T11:06:31.844Z,46.90
2018-08-10T11:09:00.412Z,46.12
2018-08-10T11:11:29.384Z,46.15
2018-08-10T11:13:58.003Z,44.51
2018-08-10T11:16:26.647Z,45.80
2018-08-10T11:18:55.403Z,46.02
2018-08-10T11:21:24.042Z,46.45
2018-08-10T11:23:52.815Z,44.93
2018-08-10T11:26:21.396Z,46.33
2018-08-10T11:28:49.982Z,45.25
2018-08-10T11:31:18.560Z,46.83
2018-08-10T11:33:47.237Z,46.39
2018-08-10T11:36:15.823Z,46.57
2018-08-10T11:38:44.389Z,46.64
2018-08-10T11:41:12.956Z,46.57
2018-08-10T11:43:41.680Z,49.20
2018-08-10T11:46:10.314Z,49.56
2018-08-10T11:48:38.876Z,47.76
2018-08-10T11:51:07.553Z,48.43
2018-08-10T11:53:36.416Z,49.16
2018-08-10T11:56:05.066Z,50.28
2018-08-10T11:58:33.848Z,51.97
2018-08-10T12:01:02.738Z,53.05
2018-08-10T12:08:48.759Z,51.68
2018-08-10T12:28:44.139Z,53.52
2018-08-10T12:31:17.790Z,56.55
2018-08-10T12:33:46.344Z,56.80
2018-08-10T12:36:14.948Z,57.11
2018-08-10T12:38:43.516Z,55.75
2018-08-10T12:41:12.122Z,56.46
2018-08-10T12:59:25.959Z,56.53
2018-08-10T13:01:54.572Z,57.09
2018-08-10T13:06:35.351Z,57.57
2018-08-10T13:09:06.947Z,57.77
2018-08-10T13:11:35.616Z,58.52
2018-08-10T13:14:04.253Z,58.82
2018-08-10T13:16:32.872Z,58.34
2018-08-10T13:19:01.503Z,59.43
2018-08-10T13:21:30.179Z,60.05
2018-08-10T13:23:58.876Z,60.26
2018-08-10T13:26:27.425Z,61.95
2018-08-10T13:28:56.128Z,62.30
2018-08-10T13:31:24.805Z,63.15
2018-08-10T13:33:53.981Z,62.96
2018-08-10T13:36:22.587Z,62.90
2018-08-10T13:38:51.434Z,64.10
2018-08-10T13:41:20.021Z,63.95
2018-08-10T13:43:48.627Z,65.04
2018-08-10T13:46:17.393Z,65.02
2018-08-10T13:48:46.001Z,64.53
2018-08-10T13:51:14.580Z,64.09
2018-08-10T13:53:43.279Z,64.26
2018-08-10T13:56:11.854Z,64.15
2018-08-10T13:58:40.501Z,63.77
2018-08-10T14:01:09.064Z,64.16
2018-08-10T14:03:39.179Z,64.25
2018-08-10T14:06:08.632Z,65.15
2018-08-10T14:08:37.197Z,64.78
2018-08-10T14:11:05.785Z,65.16
2018-08-10T14:13:34.377Z,64.76
2018-08-10T14:16:03.194Z,66.72
2018-08-10T14:18:31.728Z,66.51
2018-08-10T14:21:00.698Z,66.29
2018-08-10T14:23:29.388Z,66.96
2018-08-10T14:25:57.952Z,67.29
2018-08-10T14:28:26.652Z,67.22
2018-08-10T14:30:55.323Z,67.77
2018-08-10T14:33:23.906Z,67.23
2018-08-10T14:35:52.545Z,67.04
2018-08-10T14:38:21.234Z,67.02
2018-08-10T14:40:49.820Z,67.61
2018-08-10T14:43:18.406Z,68.95
2018-08-10T14:45:47.087Z,69.48
2018-08-10T14:48:16.011Z,69.17
2018-08-10T14:50:44.571Z,69.61
2018-08-10T14:53:13.310Z,70.06
2018-08-10T14:55:42.265Z,69.25
2018-08-10T14:58:10.868Z,69.97
2018-08-10T15:00:39.603Z,70.36
2018-08-10T15:03:08.582Z,72.38
2018-08-10T15:05:37.798Z,72.45
2018-08-10T15:08:06.671Z,72.90
2018-08-10T15:10:35.405Z,73.16
2018-08-10T15:13:04.213Z,74.22
2018-08-10T15:15:32.735Z,73.85
2018-08-10T15:18:01.320Z,74.42
2018-08-10T15:20:29.922Z,74.54
2018-08-10T15:22:58.548Z,74.75
2018-08-10T15:25:27.199Z,75.84
2018-08-10T15:27:55.852Z,75.41
2018-08-10T15:30:24.477Z,76.26
2018-08-10T15:32:53.180Z,77.11
2018-08-10T15:35:21.820Z,77.46
2018-08-10T15:37:50.609Z,77.75
2018-08-10T15:40:20.245Z,77.73
2018-08-10T15:42:48.853Z,77.96
2018-08-10T15:45:18.105Z,76.95
2018-08-10T15:47:47.158Z,77.05
2018-08-10T15:50:15.812Z,76.84
2018-08-10T15:52:45.607Z,76.95
2018-08-10T15:55:14.957Z,76.40
2018-08-10T15:57:43.618Z,75.12
2018-08-10T16:00:18.908Z,76.07
2018-08-10T16:02:48.044Z,75.43
2018-08-10T16:05:17.505Z,75.44
2018-08-10T16:07:51.308Z,75.45
2018-08-10T16:10:19.883Z,75.49
2018-08-10T16:12:48.630Z,76.16
2018-08-10T16:15:18.505Z,76.62
2018-08-10T16:20:59.978Z,75.32
2018-08-10T16:23:29.160Z,73.53
2018-08-10T16:25:57.848Z,75.25
2018-08-10T16:28:26.793Z,75.67
2018-08-10T16:30:55.435Z,75.83
2018-08-10T16:33:24.080Z,76.61
2018-08-10T16:35:53.111Z,76.18
2018-08-10T16:38:21.748Z,76.65
2018-08-10T16:40:50.360Z,77.20
2018-08-10T16:43:18.932Z,77.77
2018-08-10T16:45:47.497Z,77.99
2018-08-10T16:48:16.199Z,76.75
2018-08-10T16:50:44.905Z,76.99
2018-08-10T16:53:20.255Z,77.56
2018-08-10T16:55:48.868Z,76.54
2018-08-10T16:58:17.448Z,75.27
2018-08-10T17:00:46.086Z,76.47
2018-08-10T17:03:14.727Z,75.71
2018-08-10T17:05:43.340Z,75.56
2018-08-10T17:08:11.937Z,75.51
2018-08-10T17:10:40.724Z,75.23
2018-08-10T17:13:09.965Z,75.49
2018-08-10T17:15:38.752Z,76.14
2018-08-10T17:18:07.325Z,76.01
2018-08-10T17:20:35.939Z,75.65
2018-08-10T17:23:04.616Z,75.55
2018-08-10T17:25:33.204Z,76.02
2018-08-10T17:28:01.838Z,76.20
2018-08-10T17:30:30.616Z,75.18
2018-08-10T17:32:59.215Z,75.25
2018-08-10T17:35:28.663Z,74.77
2018-08-10T17:37:57.239Z,74.69
2018-08-10T17:40:25.928Z,74.11
2018-08-10T17:42:54.542Z,75.40
2018-08-10T17:45:23.243Z,76.24
2018-08-10T17:47:51.811Z,75.78
2018-08-10T17:50:21.646Z,75.42
2018-08-10T17:52:51.653Z,75.29
2018-08-10T17:55:20.586Z,75.01
2018-08-10T17:57:49.320Z,74.71
2018-08-10T18:00:20.705Z,76.32
2018-08-10T18:02:49.923Z,75.33
2018-08-10T18:05:19.659Z,76.09
2018-08-10T18:07:49.144Z,74.86
2018-08-10T18:10:18.882Z,74.20
2018-08-10T18:12:47.768Z,75.19
2018-08-10T18:15:17.746Z,74.21
2018-08-10T18:17:47.262Z,73.37
2018-08-10T18:20:18.273Z,74.27
2018-08-10T18:22:48.155Z,75.15
2018-08-10T18:25:17.936Z,75.50
2018-08-10T18:27:47.468Z,74.71
2018-08-10T18:30:20.144Z,75.89
2018-08-10T18:32:49.229Z,75.84
2018-08-10T18:35:17.785Z,75.01
2018-08-10T18:37:47.182Z,75.23
2018-08-10T18:40:16.647Z,76.13
2018-08-10T18:42:46.499Z,75.11
2018-08-10T18:45:18.476Z,75.43
2018-08-10T18:47:47.135Z,75.43
2018-08-10T18:50:16.945Z,75.82
2018-08-10T18:52:45.763Z,76.38
2018-08-10T18:55:16.144Z,77.25
2018-08-10T18:57:44.789Z,76.57
2018-08-10T19:00:17.488Z,77.55
2018-08-10T19:02:46.367Z,77.28
2018-08-10T19:05:16.198Z,76.80
2018-08-10T19:07:45.656Z,77.69
2018-08-10T19:10:19.503Z,77.01
2018-08-10T19:12:48.215Z,77.01
2018-08-10T19:15:16.819Z,77.49
2018-08-10T19:17:45.540Z,76.67
2018-08-10T19:20:14.644Z,76.15
2018-08-10T19:22:43.330Z,76.27
2018-08-10T19:25:14.353Z,77.37
2018-08-10T19:27:42.920Z,77.08
2018-08-10T19:30:16.916Z,77.25
2018-08-10T19:32:46.421Z,76.28
2018-08-10T19:35:15.684Z,77.25
2018-08-10T19:37:44.487Z,76.54
2018-08-10T19:40:14.428Z,76.44
2018-08-10T19:42:43.078Z,77.66
2018-08-10T19:45:13.151Z,77.53
2018-08-10T19:47:42.047Z,77.78
2018-08-10T19:50:14.633Z,78.38
2018-08-10T19:52:43.331Z,77.33
2018-08-10T19:55:13.879Z,77.41
2018-08-10T19:57:42.480Z,76.85
2018-08-10T20:00:14.122Z,76.94
2018-08-10T20:02:43.836Z,77.68
2018-08-10T20:05:15.692Z,77.64
2018-08-10T20:07:47.730Z,77.19
2018-08-10T20:10:17.638Z,76.89
2018-08-10T20:12:46.308Z,77.50
2018-08-10T20:15:16.342Z,77.84
2018-08-10T20:17:45.045Z,77.29
2018-08-10T20:20:15.871Z,75.88
2018-08-10T20:22:44.880Z,75.59
2018-08-10T20:25:14.408Z,75.89
2018-08-10T20:27:43.051Z,75.98
2018-08-10T20:30:13.664Z,75.39
2018-08-10T20:32:42.434Z,75.51
2018-08-10T20:35:13.159Z,75.10
2018-08-10T20:37:42.383Z,75.39
2018-08-10T20:40:13.434Z,75.47
2018-08-10T20:42:42.061Z,76.39
2018-08-10T20:45:11.520Z,76.62
2018-08-10T20:47:40.153Z,76.44
2018-08-10T20:50:12.369Z,76.15
2018-08-10T20:52:41.273Z,77.22
2018-08-10T20:55:09.984Z,77.93
2018-08-10T20:57:38.564Z,77.60
2018-08-10T21:00:08.264Z,77.24
2018-08-10T21:02:36.955Z,77.97
2018-08-10T21:05:06.220Z,77.81
2018-08-10T21:07:35.312Z,78.85
2018-08-10T21:10:03.979Z,78.60
2018-08-10T21:12:32.703Z,79.81
2018-08-10T21:15:01.304Z,78.66
2018-08-10T21:17:29.937Z,78.41
2018-08-10T21:19:58.591Z,78.02
2018-08-10T21:22:27.185Z,77.86
2018-08-10T21:24:55.808Z,77.68
2018-08-10T21:27:24.991Z,77.65
2018-08-10T21:29:53.574Z,76.86
2018-08-10T21:32:23.121Z,76.14
2018-08-10T21:34:52.691Z,77.36
2018-08-10T21:37:21.465Z,77.31
2018-08-10T21:39:50.040Z,77.30
2018-08-10T21:42:18.992Z,77.52
2018-08-10T21:44:47.563Z,76.98
2018-08-10T21:47:16.379Z,77.14
2018-08-10T21:49:45.015Z,77.09
2018-08-10T21:52:13.701Z,76.46
2018-08-10T21:54:42.299Z,76.59
2018-08-10T21:57:11.015Z,76.57
2018-08-10T21:59:39.615Z,75.35
2018-08-10T22:02:09.999Z,75.93
2018-08-10T22:04:38.543Z,76.70
2018-08-10T22:07:09.914Z,76.12
2018-08-10T22:09:38.495Z,77.00
2018-08-10T22:12:07.172Z,76.52
2018-08-10T22:14:40.962Z,76.60
